Oasis of the Seas — C6XS7 — position and weather

sailwx.info

Track history (hours):
 
Tides and Currents Weather Stations Pressure Air Temp Water Temp Dewpoint Dewpoint Depression Visibility Wind Speed Wind Dir Waves Ship Positions

Oasis of the Seas

Last reported at 2016-Jun-27 22:34 UTC. Time now 2016-Jun-29 12:48 UTC.
Position N 20°32' W 086°59'.

Length 360 m; draft 9.3 m.

Type: Passenger vessel. MMSI: 311020600.

Date/timePositionNaut miles runAvg speedWind from/ knotsBaromVisibWave heightAir tempDewpointWater temp
2016-Jun-27 22:34N 20°32' W 086°59'3 2.5
2016-Jun-27 21:32N 20°29' W 086°59'0 0.0
2016-Jun-27 20:32N 20°29' W 086°59'0 0.0
2016-Jun-27 19:29N 20°29' W 086°59'0 0.0
2016-Jun-27 18:32N 20°29' W 086°59'0 0.0
2016-Jun-27 17:32N 20°29' W 086°59'0 0.0
2016-Jun-27 16:32N 20°29' W 086°59'0 0.0
2016-Jun-27 15:29N 20°29' W 086°59'0 0.0
2016-Jun-27 14:32N 20°29' W 086°59'0 0.0
2016-Jun-27 13:29N 20°29' W 086°59'0 0.0
2016-Jun-27 12:32N 20°29' W 086°59'0 0.0
2016-Jun-27 11:29N 20°29' W 086°59'1 0.7
2016-Jun-27 10:33N 20°30' W 086°59'50513.6
2016-Jun-25 21:32N 25°60' W 080°03'7 6.7
2016-Jun-25 20:33N 26°05' W 080°07'0 0.0
2016-Jun-25 19:32N 26°05' W 080°07'0 0.0
2016-Jun-25 18:32N 26°05' W 080°07'0 0.0
2016-Jun-25 17:32N 26°05' W 080°07'0 0.0
2016-Jun-25 16:17N 26°05' W 080°07'0 0.0
2016-Jun-25 15:17N 26°05' W 080°07'0 0.0
2016-Jun-25 14:23N 26°05' W 080°07'0 0.0
2016-Jun-25 13:23N 26°05' W 080°07'0 0.0
2016-Jun-25 12:26N 26°05' W 080°07'0 0.0
2016-Jun-25 11:26N 26°05' W 080°07'0 0.0
2016-Jun-25 10:26N 26°05' W 080°07'1 0.9
2016-Jun-25 09:33N 26°06' W 080°06'1414.1
2016-Jun-25 08:34N 26°07' W 079°51'1817.9
2016-Jun-25 07:34N 26°09' W 079°31'90218.6
2016-Jun-23 07:00N 19°18' W 065°00'12018.6 080 / 211020.010.8 1.527.024.330.5
2016-Jun-23 00:32N 17°58' W 063°25'1818.4
2016-Jun-22 23:33N 17°44' W 063°13'3 0.2
2016-Jun-22 07:31N 17°43' W 063°16'9413.3
2016-Jun-22 00:29N 18°11' W 064°50'  
2016-Jun-18 22:11N 26°07' W 079°49'813.3
2016-Jun-18 21:33N 26°06' W 079°59'8 3.8
2016-Jun-18 19:33N 26°05' W 080°07'0 0.0
2016-Jun-18 18:21N 26°05' W 080°07'0 0.0
2016-Jun-18 17:24N 26°05' W 080°07'0 0.0
2016-Jun-18 16:24N 26°05' W 080°07'0 0.0
2016-Jun-18 15:24N 26°05' W 080°07'0 0.0
2016-Jun-18 14:24N 26°05' W 080°07'0 0.0
2016-Jun-18 13:24N 26°05' W 080°07'0 0.0
2016-Jun-18 12:27N 26°05' W 080°07'0 0.0
2016-Jun-18 11:30N 26°05' W 080°07'0 0.0
2016-Jun-18 10:30N 26°05' W 080°07'0 0.2
2016-Jun-18 09:34N 26°05' W 080°07'10 9.7
2016-Jun-18 08:33N 25°59' W 079°59'  
Track history (hours):
 
Tides and Currents Weather Stations Pressure Air Temp Water Temp Dewpoint Dewpoint Depression Visibility Wind Speed Wind Dir Waves Ship Positions

Oasis of the Seas

Last reported at 2016-Jun-27 22:34 UTC. Time now 2016-Jun-29 12:48 UTC.
Position N 20°32' W 086°59'.

Length 360 m; draft 9.3 m.

Type: Passenger vessel. MMSI: 311020600.

Date/timePositionNaut miles runAvg speedWind from/ knotsBaromVisibWave heightAir tempDewpointWater temp
2016-Jun-27 22:34N 20°32' W 086°59'3 2.5
2016-Jun-27 21:32N 20°29' W 086°59'0 0.0
2016-Jun-27 20:32N 20°29' W 086°59'0 0.0
2016-Jun-27 19:29N 20°29' W 086°59'0 0.0
2016-Jun-27 18:32N 20°29' W 086°59'0 0.0
2016-Jun-27 17:32N 20°29' W 086°59'0 0.0
2016-Jun-27 16:32N 20°29' W 086°59'0 0.0
2016-Jun-27 15:29N 20°29' W 086°59'0 0.0
2016-Jun-27 14:32N 20°29' W 086°59'0 0.0
2016-Jun-27 13:29N 20°29' W 086°59'0 0.0
2016-Jun-27 12:32N 20°29' W 086°59'0 0.0
2016-Jun-27 11:29N 20°29' W 086°59'1 0.7
2016-Jun-27 10:33N 20°30' W 086°59'50513.6
2016-Jun-25 21:32N 25°60' W 080°03'7 6.7
2016-Jun-25 20:33N 26°05' W 080°07'0 0.0
2016-Jun-25 19:32N 26°05' W 080°07'0 0.0
2016-Jun-25 18:32N 26°05' W 080°07'0 0.0
2016-Jun-25 17:32N 26°05' W 080°07'0 0.0
2016-Jun-25 16:17N 26°05' W 080°07'0 0.0
2016-Jun-25 15:17N 26°05' W 080°07'0 0.0
2016-Jun-25 14:23N 26°05' W 080°07'0 0.0
2016-Jun-25 13:23N 26°05' W 080°07'0 0.0
2016-Jun-25 12:26N 26°05' W 080°07'0 0.0
2016-Jun-25 11:26N 26°05' W 080°07'0 0.0
2016-Jun-25 10:26N 26°05' W 080°07'1 0.9
2016-Jun-25 09:33N 26°06' W 080°06'1414.1
2016-Jun-25 08:34N 26°07' W 079°51'1817.9
2016-Jun-25 07:34N 26°09' W 079°31'90218.6
2016-Jun-23 07:00N 19°18' W 065°00'12018.6 080 / 211020.010.8 1.527.024.330.5
2016-Jun-23 00:32N 17°58' W 063°25'1818.4
2016-Jun-22 23:33N 17°44' W 063°13'3 0.2
2016-Jun-22 07:31N 17°43' W 063°16'9413.3
2016-Jun-22 00:29N 18°11' W 064°50'  
2016-Jun-18 22:11N 26°07' W 079°49'813.3
2016-Jun-18 21:33N 26°06' W 079°59'8 3.8
2016-Jun-18 19:33N 26°05' W 080°07'0 0.0
2016-Jun-18 18:21N 26°05' W 080°07'0 0.0
2016-Jun-18 17:24N 26°05' W 080°07'0 0.0
2016-Jun-18 16:24N 26°05' W 080°07'0 0.0
2016-Jun-18 15:24N 26°05' W 080°07'0 0.0
2016-Jun-18 14:24N 26°05' W 080°07'0 0.0
2016-Jun-18 13:24N 26°05' W 080°07'0 0.0
2016-Jun-18 12:27N 26°05' W 080°07'0 0.0
2016-Jun-18 11:30N 26°05' W 080°07'0 0.0
2016-Jun-18 10:30N 26°05' W 080°07'0 0.2
2016-Jun-18 09:34N 26°05' W 080°07'10 9.7
2016-Jun-18 08:33N 25°59' W 079°59'  

Dump ship's entire track history